Time;durP1;ratioP1;P1;durP2;ratioP2;P2;SDS_P1;SDS_P2;PMS_P1;PMS_P2;Temp;Humidity;BMP_temperature;BMP_pressure;BME280_temperature;BME280_humidity;BME280_pressure;Samples;Min_cycle;Max_cycle;Signal;HPM_P1;HPM_P2
2022/09/26 00:00:42;;;;;;;5.85;1.85;;;11.10;99.90;;;;;;5116628;27;20481;-69
2022/09/26 00:03:09;;;;;;;3.08;1.90;;;11.10;99.90;;;;;;5111953;27;20071;-69
2022/09/26 00:05:37;;;;;;;5.35;2.08;;;11.10;99.90;;;;;;5131751;27;20507;-70
2022/09/26 00:08:04;;;;;;;3.90;1.98;;;11.10;99.90;;;;;;5134091;27;20622;-69
2022/09/26 00:10:30;;;;;;;3.33;1.98;;;11.00;99.90;;;;;;5134715;27;20064;-69
2022/09/26 00:12:56;;;;;;;3.60;1.95;;;11.00;99.90;;;;;;5133762;27;20039;-70
2022/09/26 00:15:22;;;;;;;5.65;3.22;;;11.00;99.90;;;;;;5134937;27;20035;-69
2022/09/26 00:17:48;;;;;;;3.30;1.75;;;11.00;99.90;;;;;;5132079;27;20036;-72
2022/09/26 00:20:14;;;;;;;4.85;2.15;;;11.00;99.90;;;;;;5115475;27;20051;-70
2022/09/26 00:22:39;;;;;;;6.85;2.10;;;11.00;99.90;;;;;;5115124;27;20043;-69
2022/09/26 00:25:06;;;;;;;3.33;1.70;;;11.00;99.90;;;;;;5134318;27;20070;-71
2022/09/26 00:27:31;;;;;;;3.88;1.77;;;11.00;99.90;;;;;;5132058;27;20039;-69
2022/09/26 00:29:57;;;;;;;4.22;1.90;;;11.00;99.90;;;;;;5113386;27;20051;-69
2022/09/26 00:32:23;;;;;;;4.55;1.75;;;11.10;99.90;;;;;;5126038;27;20053;-69
2022/09/26 00:34:49;;;;;;;4.90;1.85;;;11.00;99.90;;;;;;5133885;27;20472;-69
2022/09/26 00:37:15;;;;;;;4.15;1.75;;;11.00;99.90;;;;;;5133672;27;20043;-70
2022/09/26 00:39:41;;;;;;;;;;;11.00;99.90;;;;;;5134675;27;20131;-69
2022/09/26 00:42:12;;;;;;;4.15;2.10;;;11.00;99.90;;;;;;5126360;27;20400;-70
2022/09/26 00:44:48;;;;;;;4.60;2.10;;;11.00;99.90;;;;;;5098197;27;20049;-72
2022/09/26 00:47:23;;;;;;;3.35;1.85;;;11.00;99.90;;;;;;5131781;27;20049;-69
2022/09/26 00:49:54;;;;;;;3.33;1.95;;;11.00;99.90;;;;;;5134024;27;20041;-69
2022/09/26 00:52:38;;;;;;;4.30;2.00;;;11.00;99.90;;;;;;5133985;27;20043;-69
2022/09/26 00:55:07;;;;;;;5.32;2.30;;;11.00;99.90;;;;;;5147744;27;20042;-69
2022/09/26 00:57:38;;;;;;;3.83;2.00;;;11.00;99.90;;;;;;5133479;27;20035;-69
2022/09/26 01:00:09;;;;;;;6.50;1.70;;;11.00;99.90;;;;;;5132925;27;20507;-69
2022/09/26 01:02:35;;;;;;;4.53;1.75;;;11.00;99.90;;;;;;5113929;27;20490;-70
2022/09/26 01:05:04;;;;;;;4.55;2.08;;;11.00;99.90;;;;;;5132352;27;20480;-70
2022/09/26 01:07:30;;;;;;;4.25;1.55;;;11.00;99.90;;;;;;5133465;27;20038;-69
2022/09/26 01:09:57;;;;;;;4.85;1.85;;;11.00;99.90;;;;;;5133004;27;20506;-73
2022/09/26 01:12:23;;;;;;;7.30;2.10;;;11.00;99.90;;;;;;5132650;27;20127;-69
2022/09/26 01:14:53;;;;;;;7.25;2.03;;;11.00;99.90;;;;;;5115478;27;20515;-69
2022/09/26 01:17:20;;;;;;;2.88;1.60;;;11.00;99.90;;;;;;5130756;27;20043;-72
2022/09/26 01:20:04;;;;;;;4.35;2.42;;;11.00;99.90;;;;;;5125347;27;20119;-69
2022/09/26 01:22:42;;;;;;;7.85;2.35;;;11.00;99.90;;;;;;5129699;27;20479;-69
2022/09/26 01:25:33;;;;;;;6.18;2.40;;;11.00;99.90;;;;;;5123256;27;20039;-70
2022/09/26 01:28:21;;;;;;;7.00;2.53;;;11.00;99.90;;;;;;5131952;27;20093;-70
2022/09/26 01:30:55;;;;;;;5.22;2.00;;;11.00;99.90;;;;;;5132924;27;20039;-69
2022/09/26 01:33:48;;;;;;;4.70;2.88;;;11.00;99.90;;;;;;5131171;27;20039;-70
2022/09/26 01:36:29;;;;;;;5.38;2.40;;;11.00;99.90;;;;;;5132518;27;20722;-70
2022/09/26 01:39:19;;;;;;;5.18;2.13;;;11.00;99.90;;;;;;5132691;27;20502;-73
2022/09/26 01:42:05;;;;;;;5.38;2.08;;;11.00;99.90;;;;;;5118800;27;20073;-69
2022/09/26 01:44:46;;;;;;;3.93;1.87;;;10.90;99.90;;;;;;5133017;27;20085;-70
2022/09/26 01:47:18;;;;;;;5.40;2.08;;;10.90;99.90;;;;;;5123309;27;20105;-70
2022/09/26 01:50:02;;;;;;;7.70;2.38;;;10.90;99.90;;;;;;5132416;27;20051;-69
2022/09/26 01:52:41;;;;;;;4.93;2.20;;;10.90;99.90;;;;;;5132845;27;20484;-70
2022/09/26 01:55:33;;;;;;;3.75;2.20;;;10.90;99.90;;;;;;5146444;27;20395;-69
2022/09/26 01:57:59;;;;;;;9.93;2.40;;;10.90;99.90;;;;;;5132091;27;20043;-73
2022/09/26 02:00:25;;;;;;;4.65;2.50;;;10.80;99.90;;;;;;5132589;27;20051;-71
2022/09/26 02:02:54;;;;;;;4.65;2.10;;;10.90;99.90;;;;;;5130761;27;20095;-70
2022/09/26 02:05:34;;;;;;;5.90;2.15;;;10.90;99.90;;;;;;5131988;27;20073;-70
2022/09/26 02:08:16;;;;;;;3.50;2.08;;;10.90;99.90;;;;;;5131350;27;20042;-74
2022/09/26 02:10:51;;;;;;;5.75;1.98;;;10.90;99.90;;;;;;5120660;27;20070;-71
2022/09/26 02:13:40;;;;;;;6.38;2.17;;;10.90;99.90;;;;;;5131632;27;20116;-70
2022/09/26 02:16:34;;;;;;;4.50;2.20;;;10.90;99.90;;;;;;5128522;27;20042;-69
2022/09/26 02:19:09;;;;;;;4.60;2.15;;;10.90;99.90;;;;;;5130309;27;20051;-73
2022/09/26 02:21:35;;;;;;;4.22;1.98;;;10.90;99.90;;;;;;5132502;27;20045;-70
2022/09/26 02:24:01;;;;;;;5.93;2.33;;;10.90;99.90;;;;;;5131686;27;20070;-73
2022/09/26 02:26:27;;;;;;;5.80;2.42;;;10.90;99.90;;;;;;5131915;27;20074;-69
2022/09/26 02:28:54;;;;;;;4.35;2.13;;;10.90;99.90;;;;;;5131117;27;20043;-69
2022/09/26 02:31:24;;;;;;;6.70;2.40;;;10.90;99.90;;;;;;5130138;27;20039;-69
2022/09/26 02:33:51;;;;;;;6.13;2.22;;;10.90;99.90;;;;;;5112640;27;20058;-69
2022/09/26 02:36:19;;;;;;;9.18;3.08;;;10.90;99.90;;;;;;5131096;27;20491;-69
2022/09/26 02:38:45;;;;;;;4.90;2.72;;;10.90;99.90;;;;;;5131967;27;20081;-70
2022/09/26 02:41:28;;;;;;;6.80;2.72;;;10.90;99.90;;;;;;5130861;27;20563;-69
2022/09/26 02:44:09;;;;;;;4.63;2.45;;;10.90;99.90;;;;;;5131840;27;20051;-69
2022/09/26 02:46:53;;;;;;;6.10;3.05;;;10.90;99.90;;;;;;5112296;27;20407;-70
2022/09/26 02:49:44;;;;;;;6.30;2.67;;;10.90;99.90;;;;;;5125660;27;20575;-69
2022/09/26 02:52:18;;;;;;;7.55;2.58;;;10.90;99.90;;;;;;5119613;27;20038;-71
2022/09/26 02:55:04;;;;;;;6.35;2.80;;;10.90;99.90;;;;;;5131799;27;20113;-70
2022/09/26 02:57:39;;;;;;;8.55;2.63;;;10.90;99.90;;;;;;5118676;27;20050;-70
2022/09/26 03:00:16;;;;;;;6.18;2.97;;;11.00;99.90;;;;;;5131045;27;20046;-74
2022/09/26 03:02:49;;;;;;;;;;;11.00;99.90;;;;;;5117416;27;20079;-69
2022/09/26 03:05:19;;;;;;;6.05;3.08;;;11.00;99.90;;;;;;5130945;27;19919;-70
2022/09/26 03:08:07;;;;;;;10.55;3.25;;;11.00;99.90;;;;;;5131603;27;20494;-69
2022/09/26 03:10:34;;;;;;;7.03;3.25;;;11.00;99.90;;;;;;5130635;27;20375;-69
2022/09/26 03:13:07;;;;;;;7.80;2.90;;;11.00;99.90;;;;;;5123425;27;20039;-70
2022/09/26 03:15:36;;;;;;;5.32;2.58;;;11.00;99.90;;;;;;5131164;27;20047;-69
2022/09/26 03:18:06;;;;;;;9.43;3.30;;;11.00;99.90;;;;;;5110796;28;20035;-72
2022/09/26 03:20:32;;;;;;;8.63;3.40;;;10.90;99.90;;;;;;5131425;27;20070;-69
2022/09/26 03:22:58;;;;;;;7.60;3.20;;;10.90;99.90;;;;;;5131451;27;20089;-69
2022/09/26 03:25:26;;;;;;;8.50;2.90;;;11.00;99.90;;;;;;5112388;27;20053;-69
2022/09/26 03:27:53;;;;;;;8.43;3.00;;;10.90;99.90;;;;;;5130705;28;20109;-69
2022/09/26 03:30:20;;;;;;;9.98;3.53;;;10.90;99.90;;;;;;5112476;28;20362;-69
2022/09/26 03:32:47;;;;;;;10.60;3.13;;;11.00;99.90;;;;;;5129118;28;20042;-69
2022/09/26 03:35:14;;;;;;;12.48;3.80;;;10.90;99.90;;;;;;5125802;28;20127;-69
2022/09/26 03:37:40;;;;;;;8.65;3.38;;;10.90;99.90;;;;;;5124656;27;20468;-69
2022/09/26 03:40:09;;;;;;;7.32;3.60;;;10.90;99.90;;;;;;5118036;28;20050;-73
2022/09/26 03:42:35;;;;;;;7.60;3.80;;;10.90;99.90;;;;;;5130852;28;20058;-69
2022/09/26 03:45:02;;;;;;;6.85;3.30;;;10.80;99.90;;;;;;5131227;28;20047;-69
2022/09/26 03:47:29;;;;;;;8.90;3.90;;;10.80;99.90;;;;;;5128193;28;20122;-69
2022/09/26 03:49:55;;;;;;;11.02;3.85;;;10.80;99.90;;;;;;5131012;28;20068;-69
2022/09/26 03:52:21;;;;;;;7.43;3.50;;;10.80;99.90;;;;;;5112471;28;20035;-69
2022/09/26 03:54:47;;;;;;;13.15;3.92;;;10.80;99.90;;;;;;5134592;27;20053;-72
2022/09/26 03:57:14;;;;;;;6.88;3.65;;;10.80;99.90;;;;;;5127763;28;20464;-69
2022/09/26 03:59:40;;;;;;;9.93;3.72;;;10.80;99.90;;;;;;5121341;28;20071;-69
2022/09/26 04:02:07;;;;;;;8.63;3.80;;;10.80;99.90;;;;;;5129137;28;20074;-73
2022/09/26 04:04:32;;;;;;;10.50;4.85;;;10.80;99.90;;;;;;5129878;28;20066;-71
2022/09/26 04:06:58;;;;;;;12.20;4.57;;;10.80;99.90;;;;;;5130440;28;20503;-70
2022/09/26 04:09:25;;;;;;;9.52;4.03;;;10.70;99.90;;;;;;5130424;28;20050;-69
2022/09/26 04:11:50;;;;;;;;;;;10.70;99.90;;;;;;5131032;28;20425;-71
2022/09/26 04:14:17;;;;;;;9.93;4.47;;;10.70;99.90;;;;;;5097383;28;19920;-71
2022/09/26 04:16:43;;;;;;;14.63;4.75;;;10.70;99.90;;;;;;5128881;28;20038;-70
2022/09/26 04:19:10;;;;;;;11.07;5.03;;;10.70;99.90;;;;;;5129296;28;20159;-73
2022/09/26 04:21:39;;;;;;;10.35;4.80;;;10.60;99.90;;;;;;5130814;28;20051;-70
2022/09/26 04:24:13;;;;;;;10.45;4.88;;;10.60;99.90;;;;;;5130342;28;20564;-70
2022/09/26 04:26:43;;;;;;;9.70;4.93;;;10.60;99.90;;;;;;5130777;28;20062;-70
2022/09/26 04:29:09;;;;;;;13.20;4.75;;;10.60;99.90;;;;;;5130247;28;20167;-73
2022/09/26 04:31:36;;;;;;;13.82;5.10;;;10.60;99.90;;;;;;5129265;28;20051;-69
2022/09/26 04:34:05;;;;;;;14.70;5.57;;;10.60;99.90;;;;;;5131039;27;20060;-70
2022/09/26 04:36:31;;;;;;;10.52;5.18;;;10.60;99.90;;;;;;5133374;27;20047;-70
2022/09/26 04:38:59;;;;;;;13.88;5.57;;;10.60;99.90;;;;;;5116065;27;20043;-70
2022/09/26 04:41:26;;;;;;;11.57;5.40;;;10.60;99.90;;;;;;5121299;27;20051;-70
2022/09/26 04:43:57;;;;;;;10.05;5.22;;;10.60;99.90;;;;;;5133486;27;20075;-69
2022/09/26 04:46:26;;;;;;;12.82;5.53;;;10.60;99.90;;;;;;5104196;27;20174;-69
2022/09/26 04:48:54;;;;;;;10.35;5.75;;;10.60;99.90;;;;;;5112516;28;20043;-70
2022/09/26 04:51:21;;;;;;;13.98;5.60;;;10.60;99.90;;;;;;5129164;27;20039;-70
2022/09/26 04:53:47;;;;;;;17.20;6.03;;;10.60;99.90;;;;;;5119846;27;20038;-70
2022/09/26 04:56:14;;;;;;;12.70;5.15;;;10.60;99.90;;;;;;5143464;27;20035;-73
2022/09/26 04:58:41;;;;;;;15.07;5.55;;;10.60;99.90;;;;;;5133612;27;20114;-72
2022/09/26 05:01:10;;;;;;;11.85;6.10;;;10.60;99.90;;;;;;5132756;27;20074;-70
2022/09/26 05:03:36;;;;;;;10.77;5.30;;;10.60;99.90;;;;;;5129670;27;20047;-70
2022/09/26 05:06:06;;;;;;;14.80;5.63;;;10.60;99.90;;;;;;5133774;27;20083;-70
2022/09/26 05:08:31;;;;;;;21.40;5.43;;;10.50;99.90;;;;;;5133104;27;20039;-70
2022/09/26 05:10:57;;;;;;;12.82;5.20;;;10.60;99.90;;;;;;5133159;27;20467;-70
2022/09/26 05:13:24;;;;;;;14.10;5.82;;;10.60;99.90;;;;;;5132630;27;20043;-70
2022/09/26 05:15:52;;;;;;;9.15;4.68;;;10.50;99.90;;;;;;5133139;27;20039;-70
2022/09/26 05:18:20;;;;;;;12.73;5.80;;;10.50;99.90;;;;;;5131378;27;20035;-69
2022/09/26 05:20:49;;;;;;;11.45;5.45;;;10.60;99.90;;;;;;5115195;27;20043;-72
2022/09/26 05:26:20;;;;;;;15.07;5.70;;;10.60;99.90;;;;;;5132341;27;20078;-70
2022/09/26 05:29:00;;;;;;;9.50;4.70;;;10.60;99.90;;;;;;5121062;27;20044;-70
2022/09/26 05:31:32;;;;;;;10.48;5.47;;;10.60;99.90;;;;;;5125458;27;20036;-71
2022/09/26 05:33:58;;;;;;;10.02;5.07;;;10.60;99.90;;;;;;5111593;28;20108;-69
2022/09/26 05:36:24;;;;;;;;;;;10.60;99.90;;;;;;5117315;27;20480;-70
2022/09/26 05:38:51;;;;;;;8.98;4.20;;;10.60;99.90;;;;;;5133194;27;19922;-71
2022/09/26 05:41:16;;;;;;;11.15;5.80;;;10.60;99.90;;;;;;5132366;27;20143;-73
2022/09/26 05:43:42;;;;;;;14.05;5.22;;;10.60;99.90;;;;;;5145533;27;20117;-69
2022/09/26 05:46:10;;;;;;;12.95;4.45;;;10.60;99.90;;;;;;5113864;27;20487;-69
2022/09/26 05:48:37;;;;;;;9.73;4.30;;;10.60;99.90;;;;;;5130126;27;20035;-71
2022/09/26 05:51:11;;;;;;;9.77;4.68;;;10.60;99.90;;;;;;5132767;27;20047;-70
2022/09/26 05:53:41;;;;;;;9.70;4.75;;;10.60;99.90;;;;;;5134920;27;20082;-69
2022/09/26 05:56:08;;;;;;;7.78;3.90;;;10.50;99.90;;;;;;5143548;27;20123;-69
2022/09/26 05:58:36;;;;;;;6.78;3.53;;;10.50;99.90;;;;;;5131935;27;20075;-70
2022/09/26 06:01:07;;;;;;;10.13;4.20;;;10.60;99.90;;;;;;5131666;27;20142;-70
2022/09/26 06:03:34;;;;;;;9.93;4.05;;;10.60;99.90;;;;;;5130911;27;20046;-70
2022/09/26 06:06:04;;;;;;;9.52;4.07;;;10.60;99.90;;;;;;5132635;27;20046;-70
2022/09/26 06:08:31;;;;;;;12.57;4.57;;;10.60;99.90;;;;;;5132012;27;20380;-69
2022/09/26 06:11:02;;;;;;;8.55;4.10;;;10.60;99.90;;;;;;5131466;27;20042;-70
2022/09/26 06:13:28;;;;;;;8.30;4.47;;;10.60;99.90;;;;;;5131643;27;20069;-70
2022/09/26 06:15:55;;;;;;;7.97;3.95;;;10.60;99.90;;;;;;5131306;27;20365;-74
2022/09/26 06:18:20;;;;;;;9.05;3.83;;;10.60;99.90;;;;;;5142941;27;20054;-73
2022/09/26 06:20:46;;;;;;;9.82;4.10;;;10.60;99.90;;;;;;5134336;27;20039;-70
2022/09/26 06:23:12;;;;;;;8.02;3.97;;;10.60;99.90;;;;;;5132319;27;20047;-69
2022/09/26 06:25:37;;;;;;;9.20;3.67;;;10.60;99.90;;;;;;5129686;27;20039;-70
2022/09/26 06:28:03;;;;;;;8.02;3.55;;;10.60;99.90;;;;;;5132900;27;20293;-69
2022/09/26 06:30:29;;;;;;;8.55;3.75;;;10.60;99.90;;;;;;5131491;27;20039;-71
2022/09/26 06:32:54;;;;;;;8.45;4.35;;;10.60;99.90;;;;;;5111924;27;20129;-71
2022/09/26 06:35:20;;;;;;;9.65;3.70;;;10.60;99.90;;;;;;5130607;27;20464;-74
2022/09/26 06:37:46;;;;;;;7.70;3.78;;;10.60;99.90;;;;;;5131476;27;20058;-72
2022/09/26 06:40:13;;;;;;;8.98;3.55;;;10.60;99.90;;;;;;5131942;27;20046;-71
2022/09/26 06:42:38;;;;;;;;;;;10.60;99.90;;;;;;5131305;27;20039;-70
2022/09/26 06:45:08;;;;;;;7.35;3.42;;;10.50;99.90;;;;;;5131872;27;19972;-70
2022/09/26 06:47:34;;;;;;;6.90;3.20;;;10.60;99.90;;;;;;5124261;27;20535;-70
2022/09/26 06:50:01;;;;;;;;;;;10.60;99.90;;;;;;5129190;27;20039;-71
2022/09/26 06:52:33;;;;;;;6.28;3.65;;;10.50;99.90;;;;;;5130441;27;19920;-69
2022/09/26 06:54:59;;;;;;;8.50;3.47;;;10.50;99.90;;;;;;5127729;27;20055;-70
2022/09/26 06:57:25;;;;;;;9.38;3.38;;;10.60;99.90;;;;;;5109900;27;20161;-70
2022/09/26 06:59:51;;;;;;;6.60;3.08;;;10.60;99.90;;;;;;5111284;28;20122;-71
2022/09/26 07:02:16;;;;;;;6.35;3.10;;;10.60;99.90;;;;;;5109283;28;20044;-69
2022/09/26 07:04:42;;;;;;;6.38;2.72;;;10.60;99.90;;;;;;5116274;27;20601;-71
2022/09/26 07:07:08;;;;;;;8.98;3.00;;;10.60;99.90;;;;;;5132910;27;20117;-73
2022/09/26 07:09:34;;;;;;;6.85;2.95;;;10.60;99.90;;;;;;5130776;27;20035;-70
2022/09/26 07:12:00;;;;;;;6.15;3.00;;;10.60;99.90;;;;;;5129013;27;20904;-71
2022/09/26 07:14:26;;;;;;;5.93;2.97;;;10.70;99.90;;;;;;5127787;27;20492;-74
2022/09/26 07:16:52;;;;;;;7.53;3.00;;;10.70;99.90;;;;;;5109025;27;20043;-70
2022/09/26 07:19:18;;;;;;;7.28;2.92;;;10.70;99.90;;;;;;5126338;27;20122;-69
2022/09/26 07:21:47;;;;;;;5.30;2.58;;;10.80;99.90;;;;;;5145070;27;20121;-69
2022/09/26 07:24:12;;;;;;;4.93;2.50;;;10.70;99.90;;;;;;5149283;27;20034;-70
2022/09/26 07:26:39;;;;;;;3.25;2.40;;;10.80;99.90;;;;;;5144837;27;20496;-71
2022/09/26 07:29:05;;;;;;;6.60;2.85;;;10.80;99.90;;;;;;5131097;28;20521;-71
2022/09/26 07:31:31;;;;;;;5.50;2.80;;;10.80;99.90;;;;;;5129044;28;20080;-71
2022/09/26 07:33:56;;;;;;;5.68;2.60;;;10.90;99.90;;;;;;5129752;28;20050;-71
2022/09/26 07:36:22;;;;;;;4.65;2.40;;;10.90;99.90;;;;;;5109403;28;20035;-74
2022/09/26 07:38:48;;;;;;;8.80;3.15;;;10.90;99.90;;;;;;5125681;28;20124;-71
2022/09/26 07:41:14;;;;;;;5.43;2.25;;;10.80;99.90;;;;;;5111671;28;20081;-71
2022/09/26 07:43:40;;;;;;;6.13;2.63;;;10.90;99.90;;;;;;5118134;28;20069;-71
2022/09/26 07:51:37;;;;;;;6.38;2.92;;;10.90;99.90;;;;;;5142774;27;20138;-70
2022/09/26 07:54:04;;;;;;;6.15;2.58;;;10.90;99.90;;;;;;5147427;27;20387;-70
2022/09/26 07:56:33;;;;;;;4.18;2.60;;;10.90;99.90;;;;;;5137770;27;20046;-70
2022/09/26 07:59:04;;;;;;;9.43;2.92;;;10.90;99.90;;;;;;5130788;27;20043;-71
2022/09/26 08:01:30;;;;;;;6.32;2.67;;;10.80;99.90;;;;;;5129344;28;20098;-70
2022/09/26 08:03:57;;;;;;;5.88;2.25;;;10.80;99.90;;;;;;5127044;27;20054;-70
2022/09/26 08:06:23;;;;;;;6.32;2.63;;;10.80;99.90;;;;;;5133482;27;20199;-70
2022/09/26 08:08:57;;;;;;;6.13;2.70;;;10.80;99.90;;;;;;5112346;27;20035;-72
2022/09/26 08:11:23;;;;;;;9.60;3.53;;;10.80;99.90;;;;;;5116474;27;20061;-70
2022/09/26 08:13:49;;;;;;;5.25;2.85;;;10.70;99.90;;;;;;5134172;27;20043;-72
2022/09/26 08:16:22;;;;;;;7.32;2.80;;;10.80;99.90;;;;;;5122867;27;20043;-72
2022/09/26 08:18:49;;;;;;;7.00;2.85;;;10.70;99.90;;;;;;5130214;27;20043;-69
2022/09/26 08:21:15;;;;;;;4.75;2.33;;;10.70;99.90;;;;;;5134745;27;20050;-69
2022/09/26 08:23:41;;;;;;;6.78;2.85;;;10.80;99.90;;;;;;5132542;27;20047;-69
2022/09/26 08:26:07;;;;;;;7.10;2.30;;;10.70;99.90;;;;;;5133858;27;20127;-69
2022/09/26 08:28:34;;;;;;;7.18;2.90;;;10.80;99.90;;;;;;5130121;27;20043;-68
2022/09/26 08:31:01;;;;;;;5.55;2.80;;;10.80;99.90;;;;;;5133310;27;20039;-70
2022/09/26 08:33:27;;;;;;;7.00;2.60;;;10.90;99.90;;;;;;5132998;27;20042;-72
2022/09/26 08:35:53;;;;;;;;;;;11.00;99.90;;;;;;5125703;27;20439;-69
2022/09/26 08:38:20;;;;;;;4.85;2.40;;;11.10;99.90;;;;;;5143127;27;20351;-69
2022/09/26 08:40:55;;;;;;;6.70;2.53;;;11.10;99.90;;;;;;5149571;27;20093;-70
2022/09/26 08:43:55;;;;;;;5.45;2.33;;;11.20;99.90;;;;;;5143023;27;20051;-71
2022/09/26 08:46:50;;;;;;;5.45;2.45;;;11.30;99.90;;;;;;5122077;27;20043;-72
2022/09/26 08:49:27;;;;;;;4.30;2.20;;;11.30;99.90;;;;;;5133091;27;20162;-69
2022/09/26 08:51:56;;;;;;;4.07;2.20;;;11.40;99.90;;;;;;5147335;27;20039;-73
2022/09/26 08:54:39;;;;;;;5.10;2.38;;;11.40;99.90;;;;;;5148342;27;20471;-68
2022/09/26 08:57:39;;;;;;;6.80;2.50;;;11.40;99.90;;;;;;5096510;27;20066;-69
2022/09/26 09:00:14;;;;;;;4.65;2.22;;;11.40;99.90;;;;;;5081903;27;20070;-71
2022/09/26 09:02:55;;;;;;;8.57;2.10;;;11.50;99.90;;;;;;5122808;27;20112;-69
2022/09/26 09:05:33;;;;;;;6.60;2.20;;;11.50;99.90;;;;;;5126424;27;20400;-70
2022/09/26 09:08:02;;;;;;;12.23;2.70;;;11.50;99.90;;;;;;5133824;27;20114;-70
2022/09/26 09:11:20;;;;;;;4.22;2.05;;;11.50;99.90;;;;;;5144918;27;20070;-70
2022/09/26 09:14:00;;;;;;;5.05;2.38;;;11.50;99.90;;;;;;5034071;28;20186;-71
2022/09/26 09:16:40;;;;;;;6.60;2.92;;;11.50;99.90;;;;;;5048207;28;20060;-70
2022/09/26 09:19:15;;;;;;;6.57;2.38;;;11.50;99.90;;;;;;5111679;27;20815;-69
2022/09/26 09:22:25;;;;;;;3.90;2.10;;;11.60;99.90;;;;;;5132863;27;20085;-70
2022/09/26 09:25:03;;;;;;;7.55;2.30;;;11.60;99.90;;;;;;5121148;27;20655;-70
2022/09/26 09:27:42;;;;;;;7.03;2.30;;;11.70;99.90;;;;;;5136171;27;20047;-70
2022/09/26 09:30:24;;;;;;;7.78;2.28;;;11.70;99.90;;;;;;5143100;27;20039;-72
2022/09/26 09:32:59;;;;;;;9.60;2.55;;;11.80;99.90;;;;;;5133075;27;20063;-70
2022/09/26 09:35:45;;;;;;;8.05;2.40;;;11.80;99.90;;;;;;5124074;27;20485;-72
2022/09/26 09:38:25;;;;;;;5.13;2.33;;;11.80;99.90;;;;;;5126286;27;20043;-70
2022/09/26 09:41:14;;;;;;;6.70;2.60;;;11.80;99.90;;;;;;5132434;27;20124;-71
2022/09/26 09:43:50;;;;;;;5.35;2.65;;;11.80;99.90;;;;;;5093866;28;20051;-71
2022/09/26 09:46:31;;;;;;;7.38;2.33;;;11.80;99.90;;;;;;5111253;28;20748;-70
2022/09/26 09:49:08;;;;;;;8.80;2.70;;;11.70;99.90;;;;;;5111239;28;20043;-70
2022/09/26 09:51:45;;;;;;;6.38;2.53;;;11.70;99.90;;;;;;5112628;28;20047;-73
2022/09/26 09:54:48;;;;;;;6.00;2.15;;;11.70;99.90;;;;;;5112780;28;20046;-70
2022/09/26 09:57:43;;;;;;;6.85;2.67;;;11.70;99.90;;;;;;5112099;28;20123;-70
2022/09/26 10:00:21;;;;;;;8.18;2.75;;;11.70;99.90;;;;;;5094493;28;20095;-72
2022/09/26 10:02:47;;;;;;;6.80;3.13;;;11.60;99.90;;;;;;5097978;28;20055;-70
2022/09/26 10:05:27;;;;;;;13.18;3.70;;;11.60;99.90;;;;;;5112514;28;20051;-67
2022/09/26 10:07:57;;;;;;;6.45;2.47;;;11.60;99.90;;;;;;5121705;27;20039;-71
2022/09/26 10:11:01;;;;;;;6.75;2.88;;;11.50;99.90;;;;;;5131108;27;20059;-70
2022/09/26 10:13:31;;;;;;;5.22;2.30;;;11.50;99.90;;;;;;5107770;27;20039;-70
2022/09/26 10:16:04;;;;;;;6.18;2.20;;;11.50;99.90;;;;;;5102494;27;20043;-71
2022/09/26 10:18:30;;;;;;;8.75;2.53;;;11.50;99.90;;;;;;5119470;27;20048;-69
2022/09/26 10:20:57;;;;;;;;;;;11.50;99.90;;;;;;5122126;27;20035;-69
2022/09/26 10:23:31;;;;;;;;;;;11.50;99.90;;;;;;5124618;27;19915;-69
2022/09/26 10:26:06;;;;;;;6.47;2.67;;;11.40;99.90;;;;;;5124243;27;19915;-69
2022/09/26 10:28:45;;;;;;;8.18;2.92;;;11.40;99.90;;;;;;5123615;27;20050;-69
2022/09/26 10:31:21;;;;;;;8.20;3.08;;;11.40;99.90;;;;;;5136255;27;20049;-69
2022/09/26 10:33:58;;;;;;;5.57;3.13;;;11.40;99.90;;;;;;5136730;27;20054;-69
2022/09/26 10:36:31;;;;;;;5.53;2.45;;;11.30;99.90;;;;;;5124363;27;20039;-70
2022/09/26 10:41:47;;;;;;;7.00;2.88;;;11.30;99.90;;;;;;5119280;27;20390;-69
2022/09/26 10:44:27;;;;;;;7.15;2.88;;;11.30;99.90;;;;;;5122495;27;20041;-69
2022/09/26 10:46:58;;;;;;;8.35;2.83;;;11.30;99.90;;;;;;5133591;27;20043;-69
2022/09/26 10:49:35;;;;;;;8.02;3.28;;;11.30;99.90;;;;;;5101071;28;20516;-69
2022/09/26 10:52:28;;;;;;;5.97;2.75;;;11.30;99.90;;;;;;5128954;27;20471;-70
2022/09/26 10:55:16;;;;;;;9.77;3.00;;;11.30;99.90;;;;;;5139126;27;20047;-71
2022/09/26 10:57:48;;;;;;;4.80;2.58;;;11.30;99.90;;;;;;5143070;27;20418;-72
2022/09/26 11:00:39;;;;;;;8.38;3.10;;;11.40;99.90;;;;;;5102305;27;20035;-70
2022/09/26 11:03:09;;;;;;;7.75;2.70;;;11.40;99.90;;;;;;5146174;27;20052;-69
2022/09/26 11:05:55;;;;;;;7.97;3.20;;;11.40;99.90;;;;;;5133813;27;20539;-69
2022/09/26 11:08:26;;;;;;;8.48;3.38;;;11.50;99.90;;;;;;5127720;27;20114;-69
2022/09/26 11:10:53;;;;;;;5.88;3.50;;;11.40;99.90;;;;;;5097339;28;20504;-72
2022/09/26 11:13:20;;;;;;;12.18;3.20;;;11.50;99.90;;;;;;5122560;28;20109;-67
2022/09/26 11:16:01;;;;;;;6.70;2.90;;;11.50;99.90;;;;;;5129781;27;20046;-71
2022/09/26 11:18:50;;;;;;;7.13;2.63;;;11.50;99.90;;;;;;5130300;27;20039;-70
2022/09/26 11:21:36;;;;;;;6.35;3.22;;;11.40;99.90;;;;;;5117861;27;20111;-70
2022/09/26 11:24:10;;;;;;;6.47;3.50;;;11.40;99.90;;;;;;5130411;27;20274;-71
2022/09/26 11:26:47;;;;;;;11.10;4.25;;;11.30;99.90;;;;;;5149429;27;20039;-70
2022/09/26 11:29:17;;;;;;;8.40;3.10;;;11.30;99.90;;;;;;5129795;27;20043;-69
2022/09/26 11:31:44;;;;;;;8.40;3.60;;;11.20;99.90;;;;;;5107860;28;20400;-72
2022/09/26 11:34:17;;;;;;;6.60;3.45;;;11.30;99.90;;;;;;5110185;28;20047;-70
2022/09/26 11:37:11;;;;;;;8.50;3.75;;;11.20;99.90;;;;;;5129862;27;20122;-74
2022/09/26 11:39:39;;;;;;;7.20;3.50;;;11.20;99.90;;;;;;5120933;28;20046;-71
2022/09/26 11:42:29;;;;;;;11.18;4.55;;;11.30;99.90;;;;;;5142590;27;20038;-72
2022/09/26 11:45:03;;;;;;;6.05;3.55;;;11.30;99.90;;;;;;5140575;27;20065;-70
2022/09/26 11:47:38;;;;;;;6.85;3.20;;;11.30;99.90;;;;;;5144595;27;20138;-71
2022/09/26 11:50:22;;;;;;;9.45;3.60;;;11.30;99.90;;;;;;5153823;27;20191;-69
2022/09/26 11:53:09;;;;;;;6.45;3.35;;;11.40;99.90;;;;;;5143792;27;20083;-73
2022/09/26 11:56:02;;;;;;;10.68;3.67;;;11.40;99.90;;;;;;5120277;27;20043;-70
2022/09/26 11:58:52;;;;;;;9.82;3.72;;;11.50;99.90;;;;;;5141886;27;20482;-71
2022/09/26 12:01:56;;;;;;;6.10;3.30;;;11.50;99.90;;;;;;5150317;27;20047;-71
2022/09/26 12:04:37;;;;;;;6.45;3.20;;;11.50;99.90;;;;;;5101989;27;20502;-70
2022/09/26 12:07:23;;;;;;;7.63;3.38;;;11.60;99.90;;;;;;5152292;27;20038;-69
2022/09/26 12:10:09;;;;;;;4.72;3.00;;;11.60;99.90;;;;;;5149898;27;20431;-72
2022/09/26 12:12:48;;;;;;;8.07;3.50;;;11.60;99.90;;;;;;5127777;27;20101;-70
2022/09/26 12:15:32;;;;;;;13.63;3.90;;;11.60;99.90;;;;;;5140528;27;20030;-70
2022/09/26 12:18:28;;;;;;;5.13;3.10;;;11.60;99.90;;;;;;5141525;27;20413;-70
2022/09/26 12:21:32;;;;;;;9.55;3.60;;;11.60;99.90;;;;;;5149660;27;20045;-70
2022/09/26 12:24:15;;;;;;;5.88;3.25;;;11.60;99.90;;;;;;5122244;27;20051;-70
2022/09/26 12:26:50;;;;;;;7.70;3.75;;;11.60;99.90;;;;;;5128047;27;20055;-70
2022/09/26 12:29:51;;;;;;;5.28;3.20;;;11.60;99.90;;;;;;5133519;27;20058;-70
2022/09/26 12:32:24;;;;;;;7.57;4.20;;;11.60;99.90;;;;;;5120518;27;20070;-70
2022/09/26 12:35:18;;;;;;;6.38;3.03;;;11.60;99.90;;;;;;5133961;27;20116;-73
2022/09/26 12:37:57;;;;;;;5.07;2.88;;;11.60;99.90;;;;;;5154330;27;20475;-70
2022/09/26 12:40:31;;;;;;;5.32;2.70;;;11.60;99.90;;;;;;5125535;27;20035;-70
2022/09/26 12:43:30;;;;;;;9.77;3.70;;;11.70;99.90;;;;;;5133423;27;20043;-70
2022/09/26 12:46:14;;;;;;;6.47;2.70;;;11.60;99.90;;;;;;5111376;28;20059;-74
2022/09/26 12:48:45;;;;;;;5.18;2.60;;;11.60;99.90;;;;;;5134709;27;20081;-70
2022/09/26 12:51:21;;;;;;;4.13;2.72;;;11.60;99.90;;;;;;5141168;27;20521;-70
2022/09/26 12:54:08;;;;;;;5.40;2.70;;;11.60;99.90;;;;;;5148429;27;20038;-70
2022/09/26 12:57:23;;;;;;;4.93;2.70;;;11.60;99.90;;;;;;5152081;27;20632;-70
2022/09/26 13:00:12;;;;;;;5.82;2.88;;;11.60;99.90;;;;;;5096112;27;20055;-72
2022/09/26 13:02:47;;;;;;;4.30;2.42;;;11.60;99.90;;;;;;5151712;27;20414;-70
2022/09/26 13:05:46;;;;;;;4.82;2.70;;;11.70;99.90;;;;;;5152592;27;20046;-72
2022/09/26 13:08:56;;;;;;;4.20;2.60;;;11.70;99.90;;;;;;5136666;27;20073;-70
2022/09/26 13:12:03;;;;;;;4.93;2.03;;;11.80;99.90;;;;;;5051526;28;20036;-70
2022/09/26 13:14:41;;;;;;;4.85;2.33;;;11.70;99.90;;;;;;5054544;28;20088;-70
2022/09/26 13:17:13;;;;;;;3.85;2.10;;;11.70;99.90;;;;;;5138977;27;20061;-73
2022/09/26 13:19:38;;;;;;;3.72;2.08;;;11.80;99.90;;;;;;5115715;27;20053;-70
2022/09/26 13:22:31;;;;;;;4.00;2.25;;;11.70;99.90;;;;;;5127414;27;20035;-70
2022/09/26 13:25:17;;;;;;;4.55;2.55;;;11.70;99.90;;;;;;5127077;27;20383;-73
2022/09/26 13:28:08;;;;;;;3.55;2.00;;;11.70;99.90;;;;;;5148160;27;20072;-70
2022/09/26 13:31:00;;;;;;;2.53;2.00;;;11.70;99.90;;;;;;5145867;27;20034;-71
2022/09/26 13:33:34;;;;;;;5.00;2.10;;;11.80;99.90;;;;;;5129876;27;20051;-70